Terminal Aerodrome Forecast
Issued by NWS

Home | Current Version | Previous Version | Text Only | Print | Product List | Glossary On
Versions: 1 2 3 4 5 6 7 8 9 10 11 12 13 14 15 16 17 18 19
000
FTAK31 PANC 280124 AAA
TAFADQ
TAF AMD
PADQ 280124Z 2801/2824 08010KT P6SM FEW003
     FM280700 29005KT P6SM VCFG BKN008
     FM281900 08005KT P6SM FEW015=

USA.gov is the U.S. government's official web portal to all federal, state and local government web resources and services.